sensor_id;sensor_type;location;lat;lon;timestamp;pressure;altitude;pressure_sealevel;temperature;humidity
4836;BME280;66719;51.226;6.902;2023-04-24T00:02:18;99381.03;;;10.91;100.00
4836;BME280;66719;51.226;6.902;2023-04-24T00:04:45;99377.69;;;10.87;100.00
4836;BME280;66719;51.226;6.902;2023-04-24T00:07:11;99369.94;;;10.84;100.00
4836;BME280;66719;51.226;6.902;2023-04-24T00:09:39;99369.16;;;10.82;100.00
4836;BME280;66719;51.226;6.902;2023-04-24T00:12:06;99365.03;;;10.76;100.00
4836;BME280;66719;51.226;6.902;2023-04-24T00:14:32;99358.16;;;10.74;100.00
4836;BME280;66719;51.226;6.902;2023-04-24T00:16:58;99362.63;;;10.72;100.00
4836;BME280;66719;51.226;6.902;2023-04-24T00:19:25;99367.84;;;10.72;100.00
4836;BME280;66719;51.226;6.902;2023-04-24T00:21:52;99364.44;;;10.70;100.00
4836;BME280;66719;51.226;6.902;2023-04-24T00:24:18;99363.63;;;10.68;100.00
4836;BME280;66719;51.226;6.902;2023-04-24T00:26:45;99363.84;;;10.63;100.00
4836;BME280;66719;51.226;6.902;2023-04-24T00:29:11;99362.22;;;10.61;100.00
4836;BME280;66719;51.226;6.902;2023-04-24T00:31:38;99357.75;;;10.63;100.00
4836;BME280;66719;51.226;6.902;2023-04-24T00:34:04;99353.69;;;10.56;100.00
4836;BME280;66719;51.226;6.902;2023-04-24T00:36:31;99357.28;;;10.53;100.00
4836;BME280;66719;51.226;6.902;2023-04-24T00:38:58;99371.16;;;10.55;100.00
4836;BME280;66719;51.226;6.902;2023-04-24T00:41:25;99366.78;;;10.56;100.00
4836;BME280;66719;51.226;6.902;2023-04-24T00:43:52;99352.84;;;10.55;100.00
4836;BME280;66719;51.226;6.902;2023-04-24T00:46:19;99365.00;;;10.56;100.00
4836;BME280;66719;51.226;6.902;2023-04-24T00:48:46;99354.59;;;10.55;100.00
4836;BME280;66719;51.226;6.902;2023-04-24T00:51:12;99354.59;;;10.55;100.00
4836;BME280;66719;51.226;6.902;2023-04-24T00:53:39;99363.38;;;10.54;100.00
4836;BME280;66719;51.226;6.902;2023-04-24T00:56:05;99354.75;;;10.52;100.00
4836;BME280;66719;51.226;6.902;2023-04-24T00:58:32;99353.94;;;10.50;100.00
4836;BME280;66719;51.226;6.902;2023-04-24T01:00:59;99355.75;;;10.47;100.00
4836;BME280;66719;51.226;6.902;2023-04-24T01:03:29;99361.13;;;10.44;100.00
4836;BME280;66719;51.226;6.902;2023-04-24T01:05:58;99357.66;;;10.44;100.00
4836;BME280;66719;51.226;6.902;2023-04-24T01:08:26;99353.38;;;10.41;100.00
4836;BME280;66719;51.226;6.902;2023-04-24T01:10:54;99357.91;;;10.38;100.00
4836;BME280;66719;51.226;6.902;2023-04-24T01:13:23;99357.06;;;10.37;100.00
4836;BME280;66719;51.226;6.902;2023-04-24T01:15:49;99362.41;;;10.34;100.00
4836;BME280;66719;51.226;6.902;2023-04-24T01:18:16;99359.91;;;10.31;100.00
4836;BME280;66719;51.226;6.902;2023-04-24T01:20:43;99369.66;;;10.28;100.00
4836;BME280;66719;51.226;6.902;2023-04-24T01:23:11;99365.44;;;10.24;100.00
4836;BME280;66719;51.226;6.902;2023-04-24T01:25:37;99362.28;;;10.14;100.00
4836;BME280;66719;51.226;6.902;2023-04-24T01:28:04;99364.28;;;10.07;100.00
4836;BME280;66719;51.226;6.902;2023-04-24T01:30:31;99373.34;;;9.99;100.00
4836;BME280;66719;51.226;6.902;2023-04-24T01:32:58;99374.50;;;9.91;100.00
4836;BME280;66719;51.226;6.902;2023-04-24T01:35:25;99378.47;;;9.78;100.00
4836;BME280;66719;51.226;6.902;2023-04-24T01:37:52;99376.09;;;9.72;100.00
4836;BME280;66719;51.226;6.902;2023-04-24T01:40:18;99376.28;;;9.68;100.00
4836;BME280;66719;51.226;6.902;2023-04-24T01:42:45;99385.19;;;9.62;100.00
4836;BME280;66719;51.226;6.902;2023-04-24T01:45:12;99387.91;;;9.59;100.00
4836;BME280;66719;51.226;6.902;2023-04-24T01:47:39;99383.59;;;9.58;100.00
4836;BME280;66719;51.226;6.902;2023-04-24T01:50:06;99376.94;;;9.49;100.00
4836;BME280;66719;51.226;6.902;2023-04-24T01:52:33;99374.31;;;9.49;100.00
4836;BME280;66719;51.226;6.902;2023-04-24T01:55:03;99370.94;;;9.47;100.00
4836;BME280;66719;51.226;6.902;2023-04-24T01:57:30;99380.56;;;9.45;100.00
4836;BME280;66719;51.226;6.902;2023-04-24T02:00:00;99380.50;;;9.47;100.00
4836;BME280;66719;51.226;6.902;2023-04-24T02:02:27;99380.81;;;9.39;100.00
4836;BME280;66719;51.226;6.902;2023-04-24T02:04:55;99381.69;;;9.38;100.00
4836;BME280;66719;51.226;6.902;2023-04-24T02:07:22;99372.19;;;9.35;100.00
4836;BME280;66719;51.226;6.902;2023-04-24T02:09:48;99372.13;;;9.39;100.00
4836;BME280;66719;51.226;6.902;2023-04-24T02:12:15;99372.06;;;9.40;100.00
4836;BME280;66719;51.226;6.902;2023-04-24T02:14:43;99375.44;;;9.42;100.00
4836;BME280;66719;51.226;6.902;2023-04-24T02:17:10;99371.13;;;9.41;100.00
4836;BME280;66719;51.226;6.902;2023-04-24T02:19:39;99378.84;;;9.44;100.00
4836;BME280;66719;51.226;6.902;2023-04-24T02:22:06;99370.34;;;9.39;100.00
4836;BME280;66719;51.226;6.902;2023-04-24T02:24:32;99370.38;;;9.38;100.00
4836;BME280;66719;51.226;6.902;2023-04-24T02:26:59;99375.50;;;9.41;100.00
4836;BME280;66719;51.226;6.902;2023-04-24T02:29:26;99368.53;;;9.41;100.00
4836;BME280;66719;51.226;6.902;2023-04-24T02:31:52;99367.63;;;9.42;100.00
4836;BME280;66719;51.226;6.902;2023-04-24T02:34:19;99377.03;;;9.46;100.00
4836;BME280;66719;51.226;6.902;2023-04-24T02:36:45;99377.09;;;9.45;100.00
4836;BME280;66719;51.226;6.902;2023-04-24T02:39:12;99372.78;;;9.44;100.00
4836;BME280;66719;51.226;6.902;2023-04-24T02:41:39;99374.59;;;9.42;100.00
4836;BME280;66719;51.226;6.902;2023-04-24T02:44:06;99376.38;;;9.41;100.00
4836;BME280;66719;51.226;6.902;2023-04-24T02:46:32;99373.69;;;9.43;100.00
4836;BME280;66719;51.226;6.902;2023-04-24T02:48:59;99379.75;;;9.43;100.00
4836;BME280;66719;51.226;6.902;2023-04-24T02:51:25;99381.38;;;9.47;100.00
4836;BME280;66719;51.226;6.902;2023-04-24T02:53:53;99377.84;;;9.48;100.00
4836;BME280;66719;51.226;6.902;2023-04-24T02:56:19;99389.03;;;9.52;100.00
4836;BME280;66719;51.226;6.902;2023-04-24T02:58:45;99383.75;;;9.53;100.00
4836;BME280;66719;51.226;6.902;2023-04-24T03:01:12;99381.97;;;9.54;100.00
4836;BME280;66719;51.226;6.902;2023-04-24T03:03:39;99392.38;;;9.55;100.00
4836;BME280;66719;51.226;6.902;2023-04-24T03:06:06;99395.81;;;9.57;100.00
4836;BME280;66719;51.226;6.902;2023-04-24T03:08:34;99395.81;;;9.57;100.00
4836;BME280;66719;51.226;6.902;2023-04-24T03:11:01;99395.03;;;9.54;100.00
4836;BME280;66719;51.226;6.902;2023-04-24T03:13:27;99383.69;;;9.55;100.00
4836;BME280;66719;51.226;6.902;2023-04-24T03:15:53;99398.41;;;9.57;100.00
4836;BME280;66719;51.226;6.902;2023-04-24T03:18:20;99395.03;;;9.54;100.00
4836;BME280;66719;51.226;6.902;2023-04-24T03:20:47;99398.50;;;9.54;100.00
4836;BME280;66719;51.226;6.902;2023-04-24T03:23:14;99404.44;;;9.59;100.00
4836;BME280;66719;51.226;6.902;2023-04-24T03:25:40;99413.25;;;9.57;100.00
4836;BME280;66719;51.226;6.902;2023-04-24T03:28:08;99406.25;;;9.57;100.00
4836;BME280;66719;51.226;6.902;2023-04-24T03:30:35;99405.50;;;9.54;100.00
4836;BME280;66719;51.226;6.902;2023-04-24T03:33:01;99410.63;;;9.57;100.00
4836;BME280;66719;51.226;6.902;2023-04-24T03:35:28;99408.75;;;9.60;100.00
4836;BME280;66719;51.226;6.902;2023-04-24T03:37:55;99406.00;;;9.63;100.00
4836;BME280;66719;51.226;6.902;2023-04-24T03:40:21;99414.84;;;9.61;100.00
4836;BME280;66719;51.226;6.902;2023-04-24T03:42:48;99414.78;;;9.62;100.00
4836;BME280;66719;51.226;6.902;2023-04-24T03:45:14;99411.25;;;9.63;100.00
4836;BME280;66719;51.226;6.902;2023-04-24T03:47:41;99418.28;;;9.61;100.00
4836;BME280;66719;51.226;6.902;2023-04-24T03:50:08;99407.84;;;9.61;100.00
4836;BME280;66719;51.226;6.902;2023-04-24T03:52:37;99408.69;;;9.62;100.00
4836;BME280;66719;51.226;6.902;2023-04-24T03:55:04;99407.91;;;9.60;100.00
4836;BME280;66719;51.226;6.902;2023-04-24T03:57:31;99407.84;;;9.61;100.00
4836;BME280;66719;51.226;6.902;2023-04-24T03:59:57;99412.22;;;9.61;100.00
4836;BME280;66719;51.226;6.902;2023-04-24T04:02:24;99415.75;;;9.60;100.00
4836;BME280;66719;51.226;6.902;2023-04-24T04:04:50;99410.56;;;9.58;100.00
4836;BME280;66719;51.226;6.902;2023-04-24T04:07:17;99408.94;;;9.56;100.00
4836;BME280;66719;51.226;6.902;2023-04-24T04:09:44;99407.19;;;9.55;100.00
4836;BME280;66719;51.226;6.902;2023-04-24T04:12:10;99416.91;;;9.51;100.00
4836;BME280;66719;51.226;6.902;2023-04-24T04:14:37;99412.66;;;9.49;100.00
4836;BME280;66719;51.226;6.902;2023-04-24T04:17:04;99413.59;;;9.48;100.00
4836;BME280;66719;51.226;6.902;2023-04-24T04:19:30;99417.91;;;9.49;100.00
4836;BME280;66719;51.226;6.902;2023-04-24T04:21:57;99421.41;;;9.48;100.00
4836;BME280;66719;51.226;6.902;2023-04-24T04:24:23;99424.06;;;9.46;100.00
4836;BME280;66719;51.226;6.902;2023-04-24T04:26:50;99423.19;;;9.46;100.00
4836;BME280;66719;51.226;6.902;2023-04-24T04:29:18;99422.34;;;9.45;100.00
4836;BME280;66719;51.226;6.902;2023-04-24T04:31:45;99425.78;;;9.47;100.00
4836;BME280;66719;51.226;6.902;2023-04-24T04:34:11;99435.28;;;9.50;100.00
4836;BME280;66719;51.226;6.902;2023-04-24T04:36:38;99427.56;;;9.45;100.00
4836;BME280;66719;51.226;6.902;2023-04-24T04:39:06;99436.31;;;9.44;100.00
4836;BME280;66719;51.226;6.902;2023-04-24T04:41:33;99433.84;;;9.41;100.00
4836;BME280;66719;51.226;6.902;2023-04-24T04:44:01;99432.94;;;9.42;100.00
4836;BME280;66719;51.226;6.902;2023-04-24T04:46:31;99435.69;;;9.38;100.00
4836;BME280;66719;51.226;6.902;2023-04-24T04:49:00;99433.91;;;9.38;100.00
4836;BME280;66719;51.226;6.902;2023-04-24T04:51:27;99436.44;;;9.41;100.00
4836;BME280;66719;51.226;6.902;2023-04-24T04:53:54;99442.53;;;9.42;100.00
4836;BME280;66719;51.226;6.902;2023-04-24T04:56:20;99446.13;;;9.38;100.00
4836;BME280;66719;51.226;6.902;2023-04-24T04:58:48;99440.06;;;9.37;100.00
4836;BME280;66719;51.226;6.902;2023-04-24T05:01:14;99448.66;;;9.41;100.00
4836;BME280;66719;51.226;6.902;2023-04-24T05:03:40;99441.88;;;9.35;100.00
4836;BME280;66719;51.226;6.902;2023-04-24T05:06:07;99440.59;;;9.22;100.00
4836;BME280;66719;51.226;6.902;2023-04-24T05:08:34;99448.56;;;9.17;100.00
4836;BME280;66719;51.226;6.902;2023-04-24T05:11:00;99450.41;;;9.15;100.00
4836;BME280;66719;51.226;6.902;2023-04-24T05:13:27;99446.13;;;9.13;100.00
4836;BME280;66719;51.226;6.902;2023-04-24T05:16:06;99442.50;;;9.17;100.00
4836;BME280;66719;51.226;6.902;2023-04-24T05:18:33;99445.91;;;9.19;100.00
4836;BME280;66719;51.226;6.902;2023-04-24T05:20:59;99437.94;;;9.23;100.00
4836;BME280;66719;51.226;6.902;2023-04-24T05:23:26;99446.69;;;9.22;100.00
4836;BME280;66719;51.226;6.902;2023-04-24T05:25:52;99458.03;;;9.21;100.00
4836;BME280;66719;51.226;6.902;2023-04-24T05:28:19;99448.44;;;9.22;100.00
4836;BME280;66719;51.226;6.902;2023-04-24T05:30:46;99451.78;;;9.25;100.00
4836;BME280;66719;51.226;6.902;2023-04-24T05:33:12;99455.19;;;9.27;100.00
4836;BME280;66719;51.226;6.902;2023-04-24T05:35:40;99458.81;;;9.23;100.00
4836;BME280;66719;51.226;6.902;2023-04-24T05:38:12;99456.47;;;9.16;100.00
4836;BME280;66719;51.226;6.902;2023-04-24T05:40:39;99459.22;;;9.11;100.00
4836;BME280;66719;51.226;6.902;2023-04-24T05:43:06;99463.81;;;9.04;100.00
4836;BME280;66719;51.226;6.902;2023-04-24T05:45:32;99458.59;;;9.04;100.00
4836;BME280;66719;51.226;6.902;2023-04-24T05:48:10;99457.81;;;9.01;100.00
4836;BME280;66719;51.226;6.902;2023-04-24T05:50:37;99463.16;;;8.98;100.00
4836;BME280;66719;51.226;6.902;2023-04-24T05:53:03;99471.97;;;8.94;100.00
4836;BME280;66719;51.226;6.902;2023-04-24T05:55:30;99465.75;;;8.98;100.00
4836;BME280;66719;51.226;6.902;2023-04-24T05:57:57;99466.63;;;8.98;100.00
4836;BME280;66719;51.226;6.902;2023-04-24T06:00:24;99468.47;;;8.95;100.00
4836;BME280;66719;51.226;6.902;2023-04-24T06:02:51;99464.00;;;8.98;100.00
4836;BME280;66719;51.226;6.902;2023-04-24T06:05:19;99464.84;;;8.99;100.00
4836;BME280;66719;51.226;6.902;2023-04-24T06:07:46;99464.91;;;8.97;100.00
4836;BME280;66719;51.226;6.902;2023-04-24T06:10:12;99463.22;;;8.96;100.00
4836;BME280;66719;51.226;6.902;2023-04-24T06:12:39;99461.34;;;9.00;100.00
4836;BME280;66719;51.226;6.902;2023-04-24T06:15:06;99464.75;;;9.02;100.00
4836;BME280;66719;51.226;6.902;2023-04-24T06:17:33;99465.56;;;9.04;100.00
4836;BME280;66719;51.226;6.902;2023-04-24T06:19:59;99461.22;;;9.03;100.00
4836;BME280;66719;51.226;6.902;2023-04-24T06:22:26;99457.03;;;8.99;100.00
4836;BME280;66719;51.226;6.902;2023-04-24T06:24:53;99470.13;;;8.97;100.00
4836;BME280;66719;51.226;6.902;2023-04-24T06:27:19;99460.69;;;8.93;100.00
4836;BME280;66719;51.226;6.902;2023-04-24T06:29:46;99476.31;;;8.95;100.00
4836;BME280;66719;51.226;6.902;2023-04-24T06:32:14;99464.13;;;8.94;100.00
4836;BME280;66719;51.226;6.902;2023-04-24T06:34:40;99462.50;;;8.91;100.00
4836;BME280;66719;51.226;6.902;2023-04-24T06:37:08;99464.31;;;8.89;100.00
4836;BME280;66719;51.226;6.902;2023-04-24T06:39:34;99468.84;;;8.83;100.00
4836;BME280;66719;51.226;6.902;2023-04-24T06:42:01;99467.16;;;8.82;100.00
4836;BME280;66719;51.226;6.902;2023-04-24T06:44:27;99472.97;;;8.90;100.00
4836;BME280;66719;51.226;6.902;2023-04-24T06:46:54;99465.28;;;8.85;100.00
4836;BME280;66719;51.226;6.902;2023-04-24T06:49:20;99462.78;;;8.82;100.00
4836;BME280;66719;51.226;6.902;2023-04-24T06:51:47;99474.44;;;8.72;100.00
4836;BME280;66719;51.226;6.902;2023-04-24T06:54:13;99468.19;;;8.76;100.00
4836;BME280;66719;51.226;6.902;2023-04-24T06:56:41;99462.13;;;8.75;100.00
4836;BME280;66719;51.226;6.902;2023-04-24T06:59:07;99472.44;;;8.80;100.00
4836;BME280;66719;51.226;6.902;2023-04-24T07:01:34;99472.31;;;8.83;100.00
4836;BME280;66719;51.226;6.902;2023-04-24T07:04:00;99471.53;;;8.81;100.00
4836;BME280;66719;51.226;6.902;2023-04-24T07:06:28;99477.09;;;8.70;100.00
4836;BME280;66719;51.226;6.902;2023-04-24T07:08:56;99469.44;;;8.64;100.00
4836;BME280;66719;51.226;6.902;2023-04-24T07:11:23;99480.72;;;8.65;100.00
4836;BME280;66719;51.226;6.902;2023-04-24T07:13:50;99466.78;;;8.66;100.00
4836;BME280;66719;51.226;6.902;2023-04-24T07:16:16;99475.78;;;8.56;100.00
4836;BME280;66719;51.226;6.902;2023-04-24T07:18:43;99473.31;;;8.51;100.00
4836;BME280;66719;51.226;6.902;2023-04-24T07:21:09;99477.03;;;8.44;100.00
4836;BME280;66719;51.226;6.902;2023-04-24T07:23:36;99468.03;;;8.54;100.00
4836;BME280;66719;51.226;6.902;2023-04-24T07:26:02;99471.72;;;8.47;100.00
4836;BME280;66719;51.226;6.902;2023-04-24T07:28:29;99478.53;;;8.51;100.00
4836;BME280;66719;51.226;6.902;2023-04-24T07:30:59;99478.78;;;8.43;100.00
4836;BME280;66719;51.226;6.902;2023-04-24T07:33:26;99476.19;;;8.42;100.00
4836;BME280;66719;51.226;6.902;2023-04-24T07:35:53;99491.06;;;8.40;100.00
4836;BME280;66719;51.226;6.902;2023-04-24T07:38:19;99481.47;;;8.40;100.00
4836;BME280;66719;51.226;6.902;2023-04-24T07:40:49;99487.84;;;8.30;100.00
4836;BME280;66719;51.226;6.902;2023-04-24T07:43:15;99491.47;;;8.25;100.00
4836;BME280;66719;51.226;6.902;2023-04-24T07:45:42;99502.72;;;8.27;100.00
4836;BME280;66719;51.226;6.902;2023-04-24T07:48:09;99507.53;;;8.11;100.00
4836;BME280;66719;51.226;6.902;2023-04-24T07:50:35;99508.53;;;8.05;100.00
4836;BME280;66719;51.226;6.902;2023-04-24T07:53:02;99529.78;;;7.91;100.00
4836;BME280;66719;51.226;6.902;2023-04-24T07:55:29;99530.94;;;7.80;100.00
4836;BME280;66719;51.226;6.902;2023-04-24T07:57:55;99526.00;;;7.71;100.00
4836;BME280;66719;51.226;6.902;2023-04-24T08:00:22;99531.16;;;7.72;100.00
4836;BME280;66719;51.226;6.902;2023-04-24T08:02:48;99534.03;;;7.61;100.00
4836;BME280;66719;51.226;6.902;2023-04-24T08:05:15;99529.72;;;7.60;100.00
4836;BME280;66719;51.226;6.902;2023-04-24T08:07:42;99518.16;;;7.38;100.00
4836;BME280;66719;51.226;6.902;2023-04-24T08:10:12;99522.97;;;7.53;100.00
4836;BME280;66719;51.226;6.902;2023-04-24T08:12:39;99517.00;;;7.50;100.00
4836;BME280;66719;51.226;6.902;2023-04-24T08:15:07;99519.66;;;7.48;100.00
4836;BME280;66719;51.226;6.902;2023-04-24T08:17:34;99550.81;;;7.51;100.00
4836;BME280;66719;51.226;6.902;2023-04-24T08:20:02;99546.59;;;7.46;100.00
4836;BME280;66719;51.226;6.902;2023-04-24T08:22:30;99550.09;;;7.45;100.00
4836;BME280;66719;51.226;6.902;2023-04-24T08:24:59;99556.69;;;7.59;100.00
4836;BME280;66719;51.226;6.902;2023-04-24T08:27:26;99559.38;;;7.56;100.00
4836;BME280;66719;51.226;6.902;2023-04-24T08:29:54;99588.13;;;7.52;100.00
4836;BME280;66719;51.226;6.902;2023-04-24T08:32:20;99591.56;;;7.52;100.00
4836;BME280;66719;51.226;6.902;2023-04-24T08:34:47;99589.06;;;7.49;100.00
4836;BME280;66719;51.226;6.902;2023-04-24T08:37:15;99587.94;;;7.59;100.00
4836;BME280;66719;51.226;6.902;2023-04-24T08:39:41;99586.94;;;7.65;100.00
4836;BME280;66719;51.226;6.902;2023-04-24T08:42:08;99579.94;;;7.67;100.00
4836;BME280;66719;51.226;6.902;2023-04-24T08:44:36;99592.00;;;7.70;100.00
4836;BME280;66719;51.226;6.902;2023-04-24T08:47:03;99585.00;;;7.72;100.00
4836;BME280;66719;51.226;6.902;2023-04-24T08:49:29;99594.22;;;7.85;100.00
4836;BME280;66719;51.226;6.902;2023-04-24T08:51:57;99596.03;;;7.83;100.00
4836;BME280;66719;51.226;6.902;2023-04-24T08:54:24;99597.53;;;7.91;100.00
4836;BME280;66719;51.226;6.902;2023-04-24T08:56:53;99599.09;;;7.97;100.00
4836;BME280;66719;51.226;6.902;2023-04-24T08:59:21;99597.22;;;8.04;100.00
4836;BME280;66719;51.226;6.902;2023-04-24T09:01:48;99608.34;;;8.10;100.00
4836;BME280;66719;51.226;6.902;2023-04-24T09:04:17;99611.84;;;8.09;100.00
4836;BME280;66719;51.226;6.902;2023-04-24T09:06:48;99631.03;;;8.05;100.00
4836;BME280;66719;51.226;6.902;2023-04-24T09:09:16;99633.75;;;8.02;100.00
4836;BME280;66719;51.226;6.902;2023-04-24T09:11:43;99640.66;;;8.03;100.00
4836;BME280;66719;51.226;6.902;2023-04-24T09:14:10;99658.09;;;8.01;100.00
4836;BME280;66719;51.226;6.902;2023-04-24T09:16:37;99667.66;;;8.01;100.00
4836;BME280;66719;51.226;6.902;2023-04-24T09:19:03;99680.69;;;8.01;100.00
4836;BME280;66719;51.226;6.902;2023-04-24T09:21:34;99683.25;;;8.02;100.00
4836;BME280;66719;51.226;6.902;2023-04-24T09:24:04;99708.56;;;7.97;100.00
4836;BME280;66719;51.226;6.902;2023-04-24T09:26:34;99697.25;;;7.98;100.00
4836;BME280;66719;51.226;6.902;2023-04-24T09:29:01;99715.53;;;7.97;100.00
4836;BME280;66719;51.226;6.902;2023-04-24T09:31:28;99703.31;;;8.00;100.00
4836;BME280;66719;51.226;6.902;2023-04-24T09:34:03;99720.84;;;7.93;100.00
4836;BME280;66719;51.226;6.902;2023-04-24T09:36:41;99716.47;;;7.94;100.00
4836;BME280;66719;51.226;6.902;2023-04-24T09:39:10;99732.06;;;7.96;100.00
4836;BME280;66719;51.226;6.902;2023-04-24T09:41:45;99736.47;;;7.93;100.00
4836;BME280;66719;51.226;6.902;2023-04-24T09:44:16;99738.13;;;7.96;100.00
4836;BME280;66719;51.226;6.902;2023-04-24T09:46:44;99749.38;;;7.98;100.00
4836;BME280;66719;51.226;6.902;2023-04-24T09:49:16;99756.31;;;7.99;100.00
4836;BME280;66719;51.226;6.902;2023-04-24T09:51:43;99743.25;;;8.01;100.00
4836;BME280;66719;51.226;6.902;2023-04-24T09:54:17;99757.97;;;8.03;100.00
4836;BME280;66719;51.226;6.902;2023-04-24T09:56:46;99757.88;;;8.06;100.00
4836;BME280;66719;51.226;6.902;2023-04-24T09:59:14;99772.81;;;8.00;100.00
4836;BME280;66719;51.226;6.902;2023-04-24T10:01:41;99772.66;;;8.06;100.00
4836;BME280;66719;51.226;6.902;2023-04-24T10:04:22;99775.03;;;8.15;100.00
4836;BME280;66719;51.226;6.902;2023-04-24T10:06:51;99788.03;;;8.16;100.00
4836;BME280;66719;51.226;6.902;2023-04-24T10:09:20;99796.03;;;8.10;100.00
4836;BME280;66719;51.226;6.902;2023-04-24T10:11:48;99795.84;;;8.16;100.00
4836;BME280;66719;51.226;6.902;2023-04-24T10:14:17;99794.09;;;8.18;100.00
4836;BME280;66719;51.226;6.902;2023-04-24T10:16:44;99798.28;;;8.26;100.00
4836;BME280;66719;51.226;6.902;2023-04-24T10:19:14;99797.28;;;8.30;100.00
4836;BME280;66719;51.226;6.902;2023-04-24T10:21:42;99807.84;;;8.23;100.00
4836;BME280;66719;51.226;6.902;2023-04-24T10:24:13;99806.88;;;8.29;100.00
4836;BME280;66719;51.226;6.902;2023-04-24T10:26:40;99806.94;;;8.26;100.00
4836;BME280;66719;51.226;6.902;2023-04-24T10:29:07;99799.81;;;8.33;100.00
4836;BME280;66719;51.226;6.902;2023-04-24T10:31:39;99815.44;;;8.36;100.00
4836;BME280;66719;51.226;6.902;2023-04-24T10:34:06;99809.44;;;8.31;100.00
4836;BME280;66719;51.226;6.902;2023-04-24T10:36:34;99830.38;;;8.28;100.00
4836;BME280;66719;51.226;6.902;2023-04-24T10:39:03;99820.09;;;8.21;100.00
4836;BME280;66719;51.226;6.902;2023-04-24T10:41:32;99825.13;;;8.29;100.00
4836;BME280;66719;51.226;6.902;2023-04-24T10:44:06;99827.91;;;8.21;100.00
4836;BME280;66719;51.226;6.902;2023-04-24T10:46:33;99846.84;;;8.30;100.00
4836;BME280;66719;51.226;6.902;2023-04-24T10:49:03;99843.75;;;8.12;100.00
4836;BME280;66719;51.226;6.902;2023-04-24T10:51:48;99838.63;;;8.09;100.00
4836;BME280;66719;51.226;6.902;2023-04-24T10:59:51;99861.44;;;8.00;100.00
4836;BME280;66719;51.226;6.902;2023-04-24T11:02:18;99870.84;;;8.05;100.00
4836;BME280;66719;51.226;6.902;2023-04-24T11:05:03;99864.69;;;8.09;100.00
4836;BME280;66719;51.226;6.902;2023-04-24T11:10:38;99875.53;;;8.30;100.00
4836;BME280;66719;51.226;6.902;2023-04-24T11:13:06;99873.31;;;8.50;100.00
4836;BME280;66719;51.226;6.902;2023-04-24T11:15:34;99878.09;;;8.68;100.00
4836;BME280;66719;51.226;6.902;2023-04-24T11:18:01;99874.09;;;8.89;100.00
4836;BME280;66719;51.226;6.902;2023-04-24T11:20:27;99882.94;;;8.84;100.00
4836;BME280;66719;51.226;6.902;2023-04-24T11:22:54;99890.00;;;8.80;100.00
4836;BME280;66719;51.226;6.902;2023-04-24T11:25:22;99904.03;;;8.74;100.00
4836;BME280;66719;51.226;6.902;2023-04-24T11:27:49;99913.03;;;8.63;100.00
4836;BME280;66719;51.226;6.902;2023-04-24T11:30:18;99914.19;;;8.49;100.00
4836;BME280;66719;51.226;6.902;2023-04-24T11:32:50;99917.03;;;8.40;100.00
4836;BME280;66719;51.226;6.902;2023-04-24T11:35:21;99929.16;;;8.43;100.00
4836;BME280;66719;51.226;6.902;2023-04-24T11:37:54;99925.56;;;8.47;100.00
4836;BME280;66719;51.226;6.902;2023-04-24T11:40:41;99925.50;;;8.50;100.00
4836;BME280;66719;51.226;6.902;2023-04-24T11:43:08;99935.03;;;8.53;100.00
4836;BME280;66719;51.226;6.902;2023-04-24T11:45:35;99940.84;;;8.64;100.00
4836;BME280;66719;51.226;6.902;2023-04-24T11:48:03;99941.44;;;8.75;100.00
4836;BME280;66719;51.226;6.902;2023-04-24T11:50:30;99941.28;;;8.81;100.00
4836;BME280;66719;51.226;6.902;2023-04-24T11:52:56;99950.75;;;8.87;100.00
4836;BME280;66719;51.226;6.902;2023-04-24T11:55:24;99958.59;;;8.85;100.00
4836;BME280;66719;51.226;6.902;2023-04-24T11:57:56;99950.75;;;8.85;100.00
4836;BME280;66719;51.226;6.902;2023-04-24T12:00:28;99955.09;;;8.86;100.00
4836;BME280;66719;51.226;6.902;2023-04-24T12:03:07;99952.59;;;8.82;100.00
4836;BME280;66719;51.226;6.902;2023-04-24T12:05:34;99944.75;;;8.82;100.00
4836;BME280;66719;51.226;6.902;2023-04-24T12:08:01;99956.25;;;8.74;100.00
4836;BME280;66719;51.226;6.902;2023-04-24T12:10:31;99965.81;;;8.74;100.00
4836;BME280;66719;51.226;6.902;2023-04-24T12:12:58;99959.78;;;8.72;100.00
4836;BME280;66719;51.226;6.902;2023-04-24T12:15:26;99961.47;;;8.74;100.00
4836;BME280;66719;51.226;6.902;2023-04-24T12:17:54;99969.09;;;8.82;100.00
4836;BME280;66719;51.226;6.902;2023-04-24T12:20:26;99976.75;;;8.90;100.00
4836;BME280;66719;51.226;6.902;2023-04-24T12:22:54;99975.69;;;8.98;100.00
4836;BME280;66719;51.226;6.902;2023-04-24T12:25:23;99982.44;;;9.07;100.00
4836;BME280;66719;51.226;6.902;2023-04-24T12:28:13;99985.81;;;9.11;100.00
4836;BME280;66719;51.226;6.902;2023-04-24T12:30:47;99986.63;;;9.14;100.00
4836;BME280;66719;51.226;6.902;2023-04-24T12:33:21;99982.88;;;9.24;100.00
4836;BME280;66719;51.226;6.902;2023-04-24T12:35:51;100002.53;;;9.39;100.00
4836;BME280;66719;51.226;6.902;2023-04-24T12:38:24;99997.44;;;9.67;100.00
4836;BME280;66719;51.226;6.902;2023-04-24T12:41:12;100003.28;;;9.77;100.00
4836;BME280;66719;51.226;6.902;2023-04-24T12:43:50;100009.44;;;9.74;100.00
4836;BME280;66719;51.226;6.902;2023-04-24T12:46:17;100012.00;;;9.76;100.00
4836;BME280;66719;51.226;6.902;2023-04-24T12:48:47;100015.59;;;9.72;100.00
4836;BME280;66719;51.226;6.902;2023-04-24T12:51:14;100013.84;;;9.72;100.00
4836;BME280;66719;51.226;6.902;2023-04-24T12:53:40;100006.00;;;9.72;100.00
4836;BME280;66719;51.226;6.902;2023-04-24T12:56:07;100030.63;;;9.96;100.00
4836;BME280;66719;51.226;6.902;2023-04-24T12:58:34;100009.66;;;9.99;100.00
4836;BME280;66719;51.226;6.902;2023-04-24T13:01:00;100030.06;;;9.85;100.00
4836;BME280;66719;51.226;6.902;2023-04-24T13:03:27;100018.81;;;9.81;100.00
4836;BME280;66719;51.226;6.902;2023-04-24T13:05:54;100023.28;;;9.78;100.00
4836;BME280;66719;51.226;6.902;2023-04-24T13:08:20;100012.88;;;9.76;100.00
4836;BME280;66719;51.226;6.902;2023-04-24T13:10:47;100025.28;;;9.68;100.00
4836;BME280;66719;51.226;6.902;2023-04-24T13:13:14;100033.91;;;9.72;100.00
4836;BME280;66719;51.226;6.902;2023-04-24T13:15:40;100028.56;;;9.76;100.00
4836;BME280;66719;51.226;6.902;2023-04-24T13:18:06;100020.56;;;9.81;100.00
4836;BME280;66719;51.226;6.902;2023-04-24T13:20:33;100026.56;;;9.86;100.00
4836;BME280;66719;51.226;6.902;2023-04-24T13:23:01;100026.19;;;9.98;100.00